Coaldale, Canada
Current Conditions -  °F | °C
As of 7:00 AM on Monday 26 Jan 2015 (Local Time) from CYQL Reporting Station
Broken Clouds Broken Clouds  
Wind Chill: 54°   Ceiling: 26000
Heat Index: 54°   Visibility: 15mi
Dew Point: 25°   Wind: 20mph
Humidity: 33%   Direction: 240°WSW
Pressure: 29.89"   Gusts: 33mph
Location:  49.73°N, 112.6°W
Report Text: CYQL 261400Z 24017G29KT 15SM BKN260 12/M04 A2989 RMK CI7 SLP126 DENSITY ALT 3400FT
Loading
Personal Weather Stations






























Interactive Weather Map New forecast layout! Learn more

10-Day Weather Forecast

Advertisements
Track Severe Weather on mobile